Terminal Aerodrome Forecast
Issued by NWS Wichita, KS

Home | Current Version | Previous Version | Graphics & Text | Print | Product List | Glossary On
Versions: 1 2 3 4 5 6 7 8 9 10 11 12 13 14 15 16 17 18 19 20 21 22 23
000
FTUS43 KICT 170533
TAFICT
TAF
KICT 170533Z 1706/1806 17015G23KT P6SM OVC012
     FM170700 17015KT P6SM OVC008
     FM170900 17014G22KT 4SM -DZ OVC003
     FM171300 19015G23KT P6SM OVC008
     FM171600 20015G23KT P6SM SCT035
     FM180400 26012KT P6SM SCT250=

USA.gov is the U.S. government's official web portal to all federal, state and local government web resources and services.